Time;durP1;ratioP1;P1;durP2;ratioP2;P2;SDS_P1;SDS_P2;PMS_P1;PMS_P2;Temp;Humidity;BMP_temperature;BMP_pressure;BME280_temperature;BME280_humidity;BME280_pressure;Samples;Min_cycle;Max_cycle;Signal;HPM_P1;HPM_P2
2022/04/27 00:00:03;;;;;;;4.85;3.42;;;20.20;59.40;;;;;;5014386;28;93449;-61
2022/04/27 00:02:30;;;;;;;3.83;3.17;;;20.20;59.20;;;;;;5003745;28;92285;-63
2022/04/27 00:04:57;;;;;;;4.38;3.22;;;20.20;59.10;;;;;;5015402;28;92208;-62
2022/04/27 00:07:23;;;;;;;4.65;3.20;;;20.20;59.30;;;;;;5015419;28;91519;-62
2022/04/27 00:09:49;;;;;;;5.75;2.90;;;20.20;59.20;;;;;;5015174;28;93154;-61
2022/04/27 00:12:14;;;;;;;5.00;3.08;;;20.20;59.20;;;;;;5015680;28;92450;-62
2022/04/27 00:14:40;;;;;;;5.30;3.15;;;20.20;59.20;;;;;;5015077;28;92920;-62
2022/04/27 00:17:06;;;;;;;3.95;3.03;;;20.20;59.10;;;;;;5015202;28;91917;-62
2022/04/27 00:19:31;;;;;;;4.15;3.00;;;20.20;59.10;;;;;;5014693;28;92452;-61
2022/04/27 00:21:57;;;;;;;3.45;3.13;;;20.20;59.00;;;;;;5012227;28;93968;-61
2022/04/27 00:24:23;;;;;;;4.18;3.05;;;20.20;59.20;;;;;;5016968;28;92082;-62
2022/04/27 00:26:48;;;;;;;4.13;3.20;;;20.20;59.20;;;;;;5017233;28;91974;-62
2022/04/27 00:29:14;;;;;;;3.72;3.20;;;20.20;59.00;;;;;;5016768;28;96393;-61
2022/04/27 00:31:40;;;;;;;5.25;3.33;;;20.10;59.00;;;;;;5016267;28;91760;-61
2022/04/27 00:34:05;;;;;;;4.28;3.13;;;20.20;59.10;;;;;;5015556;28;92606;-61
2022/04/27 00:36:31;;;;;;;4.38;3.17;;;20.10;59.00;;;;;;5018243;28;92430;-61
2022/04/27 00:39:00;;;;;;;3.67;3.15;;;20.10;59.10;;;;;;5016377;28;96053;-62
2022/04/27 00:41:25;;;;;;;5.65;2.92;;;20.10;59.00;;;;;;5016996;28;92740;-61
2022/04/27 00:43:54;;;;;;;4.13;3.33;;;20.10;59.20;;;;;;5018063;28;92453;-62
2022/04/27 00:46:20;;;;;;;5.28;3.50;;;20.10;59.10;;;;;;5016334;28;91988;-62
2022/04/27 00:48:46;;;;;;;4.45;3.05;;;20.10;59.00;;;;;;5018452;28;93214;-61
2022/04/27 00:51:16;;;;;;;4.68;3.22;;;20.10;59.10;;;;;;5012094;28;92857;-61
2022/04/27 00:53:42;;;;;;;4.28;3.05;;;20.10;59.10;;;;;;5018869;28;92361;-62
2022/04/27 00:56:09;;;;;;;3.38;3.03;;;20.10;59.00;;;;;;5018707;28;91214;-61
2022/04/27 00:58:34;;;;;;;4.22;3.00;;;20.10;59.00;;;;;;5018245;28;94056;-61
2022/04/27 01:01:00;;;;;;;4.45;3.38;;;20.10;58.90;;;;;;5007674;28;92468;-61
2022/04/27 01:03:26;;;;;;;4.93;2.97;;;20.10;59.00;;;;;;5017551;28;93247;-62
2022/04/27 01:05:52;;;;;;;3.22;2.70;;;20.10;58.90;;;;;;5013215;28;92427;-62
2022/04/27 01:08:21;;;;;;;3.83;2.90;;;20.00;58.90;;;;;;5018392;28;92970;-61
2022/04/27 01:10:48;;;;;;;3.78;3.33;;;20.10;58.70;;;;;;5017642;28;92560;-61
2022/04/27 01:13:14;;;;;;;6.03;3.45;;;20.10;58.80;;;;;;5016307;28;92465;-61
2022/04/27 01:15:40;;;;;;;3.88;2.72;;;20.10;58.90;;;;;;5018001;28;92311;-62
2022/04/27 01:18:08;;;;;;;2.53;2.33;;;20.00;58.70;;;;;;5017480;28;94240;-62
2022/04/27 01:20:44;;;;;;;3.67;3.00;;;20.00;58.80;;;;;;5018470;28;93226;-61
2022/04/27 01:23:11;;;;;;;5.63;3.00;;;20.00;58.70;;;;;;5017407;28;92638;-61
2022/04/27 01:25:59;;;;;;;4.13;2.83;;;20.00;58.70;;;;;;5017397;28;92579;-61
2022/04/27 01:28:28;;;;;;;3.50;3.00;;;20.00;58.70;;;;;;5016980;28;93202;-62
2022/04/27 01:31:03;;;;;;;5.15;3.10;;;20.00;58.70;;;;;;5017041;28;93735;-62
2022/04/27 01:33:35;;;;;;;3.28;2.97;;;20.00;58.60;;;;;;5017758;28;92289;-62
2022/04/27 01:36:02;;;;;;;3.80;2.97;;;20.00;58.60;;;;;;5015098;28;92090;-61
2022/04/27 01:38:42;;;;;;;5.13;3.17;;;20.00;58.70;;;;;;5016835;28;93141;-61
2022/04/27 01:41:08;;;;;;;4.47;2.65;;;20.00;58.50;;;;;;5016669;28;94302;-61
2022/04/27 01:43:35;;;;;;;3.85;2.83;;;20.00;58.50;;;;;;5013158;28;92337;-61
2022/04/27 01:46:01;;;;;;;4.15;2.97;;;20.00;58.70;;;;;;5015805;28;91670;-62
2022/04/27 01:48:27;;;;;;;2.97;2.63;;;20.00;58.60;;;;;;5016980;28;93419;-61
2022/04/27 01:50:53;;;;;;;3.00;2.70;;;20.00;58.60;;;;;;5013413;28;94497;-61
2022/04/27 01:56:04;;;;;;;2.90;2.60;;;20.00;58.60;;;;;;5017366;28;91947;-61
2022/04/27 01:58:30;;;;;;;3.47;3.05;;;19.90;58.70;;;;;;5016927;28;94098;-62
2022/04/27 02:00:56;;;;;;;3.75;3.22;;;20.00;58.50;;;;;;5016789;28;92251;-62
2022/04/27 02:03:22;;;;;;;3.30;2.75;;;19.90;58.50;;;;;;5016262;28;92192;-61
2022/04/27 02:05:49;;;;;;;3.60;3.30;;;19.90;58.50;;;;;;5017470;28;92249;-61
2022/04/27 02:08:15;;;;;;;3.25;2.95;;;19.90;58.50;;;;;;5017008;28;92764;-62
2022/04/27 02:10:42;;;;;;;3.03;2.80;;;19.90;58.60;;;;;;5015772;28;95366;-61
2022/04/27 02:13:09;;;;;;;3.33;3.03;;;19.90;58.50;;;;;;5017278;28;91903;-61
2022/04/27 02:15:35;;;;;;;4.15;3.35;;;19.90;58.40;;;;;;5017282;28;92147;-61
2022/04/27 02:18:01;;;;;;;3.17;2.88;;;19.90;58.40;;;;;;5014906;28;96859;-61
2022/04/27 02:20:28;;;;;;;3.50;2.90;;;19.90;58.50;;;;;;5016195;28;93678;-61
2022/04/27 02:22:54;;;;;;;4.43;2.90;;;19.90;58.40;;;;;;5017032;28;92032;-61
2022/04/27 02:25:20;;;;;;;3.17;2.88;;;19.90;58.30;;;;;;5016611;28;92571;-61
2022/04/27 02:27:46;;;;;;;5.18;3.20;;;19.90;58.40;;;;;;5016228;28;93662;-62
2022/04/27 02:30:15;;;;;;;3.67;2.75;;;19.90;58.40;;;;;;5016271;28;93455;-61
2022/04/27 02:32:40;;;;;;;3.35;2.97;;;19.90;58.30;;;;;;5017001;28;92446;-62
2022/04/27 02:35:07;;;;;;;3.20;2.78;;;19.90;58.40;;;;;;5017145;28;91482;-62
2022/04/27 02:37:33;;;;;;;3.15;2.67;;;19.80;58.30;;;;;;5014707;28;94631;-61
2022/04/27 02:39:59;;;;;;;3.63;2.90;;;19.80;58.10;;;;;;5016404;28;93150;-61
2022/04/27 02:42:26;;;;;;;3.30;2.80;;;19.90;58.30;;;;;;5009000;28;92866;-62
2022/04/27 02:44:52;;;;;;;3.40;3.08;;;19.90;58.20;;;;;;5015840;28;92259;-61
2022/04/27 02:47:18;;;;;;;3.78;3.03;;;19.80;58.10;;;;;;5014816;28;93215;-61
2022/04/27 02:52:29;;;;;;;4.20;3.13;;;19.80;58.20;;;;;;5016559;28;92027;-61
2022/04/27 02:54:55;;;;;;;4.78;3.25;;;19.80;58.30;;;;;;5016029;28;92997;-61
2022/04/27 02:57:21;;;;;;;3.88;3.30;;;19.80;58.20;;;;;;5013909;28;94230;-61
2022/04/27 02:59:47;;;;;;;3.22;2.88;;;19.80;58.20;;;;;;5016114;28;92253;-62
2022/04/27 03:02:13;;;;;;;3.88;3.28;;;19.80;58.10;;;;;;5015707;28;92335;-62
2022/04/27 03:04:39;;;;;;;3.67;3.03;;;19.80;58.20;;;;;;5015916;28;92378;-61
2022/04/27 03:07:05;;;;;;;3.50;3.20;;;19.80;58.30;;;;;;5015824;28;93531;-61
2022/04/27 03:09:31;;;;;;;4.15;3.15;;;19.80;58.10;;;;;;5015755;28;93710;-61
2022/04/27 03:11:56;;;;;;;3.67;2.92;;;19.80;58.10;;;;;;5016334;28;92613;-62
2022/04/27 03:14:22;;;;;;;5.13;2.97;;;19.80;58.20;;;;;;5015874;28;92423;-61
2022/04/27 03:16:48;;;;;;;3.00;2.50;;;19.80;58.10;;;;;;5013499;28;95958;-61
2022/04/27 03:19:14;;;;;;;2.83;2.60;;;19.80;58.20;;;;;;5015489;28;92864;-61
2022/04/27 03:21:42;;;;;;;3.08;2.78;;;19.80;58.10;;;;;;5015430;28;92429;-61
2022/04/27 03:24:08;;;;;;;3.28;2.97;;;19.80;58.00;;;;;;5014036;28;91316;-61
2022/04/27 03:26:33;;;;;;;4.70;3.20;;;19.80;58.00;;;;;;5014564;28;94583;-61
2022/04/27 03:28:59;;;;;;;3.97;3.22;;;19.80;58.10;;;;;;5015607;28;93497;-61
2022/04/27 03:31:25;;;;;;;3.45;3.15;;;19.70;58.10;;;;;;5015381;28;93118;-61
2022/04/27 03:33:51;;;;;;;3.65;3.03;;;19.70;58.00;;;;;;5015512;28;92340;-61
2022/04/27 03:36:17;;;;;;;3.30;3.00;;;19.70;58.00;;;;;;5015545;28;94368;-61
2022/04/27 03:38:43;;;;;;;4.45;3.15;;;19.70;58.00;;;;;;5015538;28;92413;-62
2022/04/27 03:41:09;;;;;;;3.05;2.78;;;19.70;57.80;;;;;;5016755;28;92276;-62
2022/04/27 03:43:35;;;;;;;4.03;2.97;;;19.70;57.80;;;;;;5016376;28;92143;-61
2022/04/27 03:46:01;;;;;;;2.97;2.60;;;19.70;58.00;;;;;;5015914;28;92620;-61
2022/04/27 03:48:27;;;;;;;3.15;2.75;;;19.70;58.00;;;;;;5016460;28;92427;-61
2022/04/27 03:50:52;;;;;;;3.63;3.05;;;19.70;57.90;;;;;;5015712;28;91938;-61
2022/04/27 03:53:18;;;;;;;2.95;2.70;;;19.70;57.90;;;;;;5014494;28;92034;-61
2022/04/27 03:55:44;;;;;;;3.72;2.85;;;19.70;58.00;;;;;;5015338;28;94178;-62
2022/04/27 03:58:09;;;;;;;3.25;2.80;;;19.70;57.90;;;;;;5017044;28;93746;-62
2022/04/27 04:00:35;;;;;;;3.08;2.78;;;19.70;57.90;;;;;;5017082;28;91989;-61
2022/04/27 04:03:04;;;;;;;2.80;2.60;;;19.70;57.90;;;;;;5015497;28;92621;-61
2022/04/27 04:05:30;;;;;;;3.63;3.17;;;19.70;57.90;;;;;;5019267;28;93642;-62
2022/04/27 04:07:57;;;;;;;3.60;2.88;;;19.70;57.80;;;;;;5019473;28;92844;-61
2022/04/27 04:10:23;;;;;;;4.20;3.00;;;19.70;57.80;;;;;;5019299;28;92030;-62
2022/04/27 04:12:48;;;;;;;4.03;2.88;;;19.60;57.70;;;;;;5019678;28;91188;-61
2022/04/27 04:15:15;;;;;;;3.20;2.67;;;19.70;57.70;;;;;;5018786;28;92930;-61
2022/04/27 04:17:44;;;;;;;3.08;2.78;;;19.70;57.70;;;;;;5018644;28;92689;-61
2022/04/27 04:20:12;;;;;;;4.20;2.97;;;19.60;57.90;;;;;;5018424;28;92942;-62
2022/04/27 04:22:37;;;;;;;3.40;2.90;;;19.60;57.80;;;;;;5018398;28;92300;-61
2022/04/27 04:30:40;;;;;;;3.58;2.78;;;19.60;57.60;;;;;;4993641;28;92031;-60
2022/04/27 04:33:05;;;;;;;3.20;2.90;;;19.60;57.70;;;;;;5017410;28;91895;-61
2022/04/27 04:35:31;;;;;;;3.35;2.67;;;19.60;57.60;;;;;;5011800;28;92816;-61
2022/04/27 04:37:57;;;;;;;3.42;3.00;;;19.60;57.60;;;;;;5018602;28;92890;-62
2022/04/27 04:40:23;;;;;;;3.75;2.70;;;19.60;57.60;;;;;;5019035;28;91900;-61
2022/04/27 04:42:48;;;;;;;3.95;3.15;;;19.60;57.60;;;;;;5018462;28;91991;-62
2022/04/27 04:45:14;;;;;;;3.30;2.88;;;19.60;57.60;;;;;;5017641;28;93483;-61
2022/04/27 04:47:42;;;;;;;4.45;3.03;;;19.60;57.50;;;;;;5018055;28;92958;-61
2022/04/27 04:50:08;;;;;;;3.47;2.90;;;19.60;57.50;;;;;;5016698;28;91931;-61
2022/04/27 04:52:35;;;;;;;3.60;2.85;;;19.60;57.60;;;;;;5018031;28;92474;-61
2022/04/27 04:55:00;;;;;;;2.95;2.40;;;19.60;57.60;;;;;;5018246;28;93057;-61
2022/04/27 04:57:26;;;;;;;3.30;3.00;;;19.60;57.80;;;;;;5017943;28;92272;-61
2022/04/27 04:59:52;;;;;;;3.33;2.83;;;19.60;57.80;;;;;;5014133;28;91881;-62
2022/04/27 05:02:17;;;;;;;3.20;2.90;;;19.50;57.60;;;;;;5014283;28;91813;-61
2022/04/27 05:04:43;;;;;;;3.95;3.00;;;19.60;57.70;;;;;;5017107;28;92198;-62
2022/04/27 05:07:09;;;;;;;3.33;3.00;;;19.60;57.80;;;;;;5015727;28;95153;-61
2022/04/27 05:09:35;;;;;;;3.10;2.72;;;19.60;57.60;;;;;;5016515;28;92920;-61
2022/04/27 05:12:00;;;;;;;3.92;2.97;;;19.60;57.60;;;;;;5018379;28;92484;-61
2022/04/27 05:14:26;;;;;;;3.70;3.03;;;19.60;57.70;;;;;;5017442;28;92677;-62
2022/04/27 05:16:52;;;;;;;2.75;2.55;;;19.60;57.60;;;;;;5016916;28;92949;-61
2022/04/27 05:19:17;;;;;;;3.72;3.00;;;19.60;57.70;;;;;;5013850;28;92312;-61
2022/04/27 05:21:43;;;;;;;3.38;3.03;;;19.60;57.70;;;;;;5009047;28;92005;-62
2022/04/27 05:24:09;;;;;;;3.92;2.63;;;19.60;57.50;;;;;;5017617;28;92169;-61
2022/04/27 05:26:34;;;;;;;3.20;2.90;;;19.60;57.60;;;;;;5014661;28;96125;-62
2022/04/27 05:31:57;;;;;;;3.33;2.78;;;19.60;57.60;;;;;;5008714;28;92021;-62
2022/04/27 05:34:23;;;;;;;3.57;2.80;;;19.70;57.60;;;;;;5016337;28;95047;-61
2022/04/27 05:36:50;;;;;;;2.50;2.30;;;19.70;57.50;;;;;;5014191;28;94165;-61
2022/04/27 05:39:16;;;;;;;3.50;2.83;;;19.70;57.70;;;;;;5016438;28;92133;-61
2022/04/27 05:41:41;;;;;;;3.15;2.90;;;19.70;57.50;;;;;;5017014;28;92448;-62
2022/04/27 05:44:09;;;;;;;2.80;2.40;;;19.70;57.60;;;;;;5017698;28;92892;-62
2022/04/27 05:46:36;;;;;;;3.38;2.63;;;19.70;57.40;;;;;;5018001;28;92742;-62
2022/04/27 05:49:02;;;;;;;3.28;2.90;;;19.70;57.50;;;;;;5018396;28;92258;-62
2022/04/27 05:51:28;;;;;;;2.97;2.67;;;19.70;57.50;;;;;;5017866;28;91985;-62
2022/04/27 05:53:54;;;;;;;3.03;2.33;;;19.70;57.50;;;;;;5017260;28;93205;-62
2022/04/27 05:56:20;;;;;;;3.30;3.00;;;19.70;57.60;;;;;;5016826;28;92802;-62
2022/04/27 05:58:46;;;;;;;3.03;2.72;;;19.70;57.50;;;;;;5016400;28;94304;-62
2022/04/27 06:01:12;;;;;;;3.05;2.75;;;19.70;57.40;;;;;;5015963;28;91922;-61
2022/04/27 06:03:38;;;;;;;3.05;2.75;;;19.70;57.50;;;;;;5016291;28;92800;-61
2022/04/27 06:06:04;;;;;;;5.85;3.83;;;19.70;57.60;;;;;;5015585;28;93037;-61
2022/04/27 06:08:29;;;;;;;3.50;2.80;;;19.70;55.90;;;;;;5013382;28;91978;-61
2022/04/27 06:10:55;;;;;;;2.90;2.60;;;19.70;57.30;;;;;;5015890;28;92202;-61
2022/04/27 06:13:21;;;;;;;3.03;2.75;;;19.70;57.50;;;;;;5016941;28;92983;-62
2022/04/27 06:15:46;;;;;;;3.20;2.90;;;19.70;57.50;;;;;;5015528;28;94820;-61
2022/04/27 06:18:12;;;;;;;3.72;3.42;;;19.80;57.50;;;;;;5016600;28;92158;-62
2022/04/27 06:20:38;;;;;;;3.58;2.53;;;19.80;57.70;;;;;;5017919;28;92046;-61
2022/04/27 06:23:04;;;;;;;3.40;2.60;;;19.80;58.00;;;;;;5015189;28;95489;-62
2022/04/27 06:25:30;;;;;;;6.10;3.10;;;19.80;58.20;;;;;;5016678;28;93222;-62
2022/04/27 06:27:56;;;;;;;6.38;3.42;;;19.80;57.90;;;;;;5017116;28;92232;-62
2022/04/27 06:30:24;;;;;;;7.20;4.20;;;19.80;57.50;;;;;;5015242;28;92050;-62
2022/04/27 06:32:50;;;;;;;17.17;4.30;;;19.90;57.90;;;;;;5012936;28;91889;-62
2022/04/27 06:35:16;;;;;;;9.93;3.67;;;19.90;55.80;;;;;;5011885;28;92241;-62
2022/04/27 06:37:42;;;;;;;5.78;3.72;;;19.90;57.90;;;;;;5016375;28;92087;-62
2022/04/27 06:40:09;;;;;;;6.63;3.50;;;19.90;58.20;;;;;;5016665;28;91347;-61
2022/04/27 06:42:35;;;;;;;6.13;3.95;;;19.90;58.20;;;;;;5009930;28;93025;-61
2022/04/27 06:45:01;;;;;;;7.28;3.95;;;19.90;58.40;;;;;;5016324;28;93810;-62
2022/04/27 06:47:27;;;;;;;6.00;3.83;;;19.90;58.60;;;;;;5015098;28;93316;-61
2022/04/27 06:49:52;;;;;;;10.45;4.03;;;19.90;58.80;;;;;;5015815;28;91961;-62
2022/04/27 06:52:18;;;;;;;5.97;3.97;;;19.90;58.80;;;;;;5015463;28;93837;-62
2022/04/27 06:54:43;;;;;;;8.18;3.72;;;19.90;58.90;;;;;;5010590;28;93016;-63
2022/04/27 06:57:09;;;;;;;5.45;3.80;;;20.00;58.80;;;;;;5016340;28;92379;-62
2022/04/27 06:59:35;;;;;;;7.03;3.72;;;19.90;58.80;;;;;;5009261;28;92045;-62
2022/04/27 07:02:01;;;;;;;5.88;3.60;;;19.90;58.70;;;;;;5014636;28;93440;-62
2022/04/27 07:04:27;;;;;;;5.15;3.80;;;19.90;58.70;;;;;;5014457;28;92793;-62
2022/04/27 07:06:53;;;;;;;5.30;3.88;;;19.90;58.80;;;;;;5015764;28;92333;-62
2022/04/27 07:09:20;;;;;;;7.47;3.75;;;20.00;58.70;;;;;;5015928;28;91957;-62
2022/04/27 07:11:46;;;;;;;10.18;3.80;;;20.00;58.80;;;;;;4997223;28;94130;-62
2022/04/27 07:14:15;;;;;;;9.57;3.83;;;20.00;59.00;;;;;;5019591;28;94253;-62
2022/04/27 07:16:42;;;;;;;4.57;3.50;;;20.00;58.90;;;;;;5015499;28;92261;-62
2022/04/27 07:19:10;;;;;;;6.75;3.72;;;20.00;59.00;;;;;;5010376;28;92322;-62
2022/04/27 07:21:39;;;;;;;7.55;3.58;;;20.00;59.00;;;;;;5014655;28;94677;-61
2022/04/27 07:24:06;;;;;;;8.70;3.92;;;19.90;58.90;;;;;;5010473;28;95524;-62
2022/04/27 07:26:31;;;;;;;5.88;3.60;;;20.00;59.00;;;;;;5012317;28;91980;-63
2022/04/27 07:28:57;;;;;;;5.47;3.85;;;20.00;59.00;;;;;;5015026;28;91127;-63
2022/04/27 07:31:23;;;;;;;8.43;4.57;;;20.00;58.90;;;;;;5013762;28;93699;-62
2022/04/27 07:33:49;;;;;;;10.77;4.47;;;20.00;58.90;;;;;;5013136;28;92372;-62
2022/04/27 07:36:14;;;;;;;14.02;5.30;;;19.90;58.90;;;;;;5014707;28;93335;-63
2022/04/27 07:38:41;;;;;;;9.70;4.35;;;19.90;58.80;;;;;;5004523;28;92607;-62
2022/04/27 07:41:07;;;;;;;14.43;5.97;;;19.90;58.80;;;;;;5012148;28;92897;-62
2022/04/27 07:43:33;;;;;;;9.77;4.70;;;19.90;59.00;;;;;;5015757;28;93168;-62
2022/04/27 07:45:59;;;;;;;11.70;4.82;;;19.90;59.10;;;;;;5015840;28;92452;-62
2022/04/27 07:48:24;;;;;;;10.15;5.43;;;19.90;59.10;;;;;;5013987;28;92038;-63
2022/04/27 07:50:50;;;;;;;12.77;5.25;;;19.90;59.10;;;;;;5005922;28;94352;-62
2022/04/27 07:53:16;;;;;;;21.90;6.00;;;19.90;59.30;;;;;;5014838;28;92890;-63
2022/04/27 07:55:42;;;;;;;11.95;5.20;;;19.90;59.10;;;;;;5005982;28;92186;-63
2022/04/27 07:58:07;;;;;;;16.42;5.38;;;19.90;59.00;;;;;;5009860;28;92220;-63
2022/04/27 08:00:35;;;;;;;14.65;5.95;;;20.00;59.20;;;;;;5012693;28;93587;-63
2022/04/27 08:03:01;;;;;;;13.73;5.07;;;20.00;59.40;;;;;;5012790;28;95635;-63
2022/04/27 08:05:27;;;;;;;22.90;5.82;;;20.00;58.90;;;;;;5011508;28;92292;-63
2022/04/27 08:07:53;;;;;;;15.88;5.20;;;20.00;59.00;;;;;;5004995;28;92399;-63
2022/04/27 08:10:20;;;;;;;15.48;5.35;;;20.00;59.00;;;;;;5003795;28;92649;-63
2022/04/27 08:12:49;;;;;;;11.80;5.88;;;20.00;58.80;;;;;;5004212;28;93022;-62
2022/04/27 08:15:17;;;;;;;14.10;5.32;;;20.00;58.80;;;;;;5004092;28;92645;-63
2022/04/27 08:18:00;;;;;;;13.77;5.97;;;20.00;58.70;;;;;;5004156;28;91815;-61
2022/04/27 08:23:16;;;;;;;16.67;5.80;;;20.00;58.70;;;;;;5004971;28;92817;-63
2022/04/27 08:25:45;;;;;;;11.45;5.97;;;20.00;58.40;;;;;;5003641;28;93349;-62
2022/04/27 08:28:10;;;;;;;14.90;6.30;;;20.00;58.50;;;;;;5004748;28;92907;-63
2022/04/27 08:30:38;;;;;;;16.92;5.97;;;20.00;58.40;;;;;;5003423;28;94620;-63
2022/04/27 08:33:05;;;;;;;17.35;6.05;;;20.00;58.30;;;;;;5004701;28;93778;-63
2022/04/27 08:35:32;;;;;;;15.90;5.60;;;20.00;58.40;;;;;;5002255;28;92326;-64
2022/04/27 08:38:09;;;;;;;11.57;5.70;;;20.00;58.20;;;;;;5006096;28;92659;-62
2022/04/27 08:40:40;;;;;;;17.23;6.30;;;20.00;58.00;;;;;;5009928;28;93475;-63
2022/04/27 08:43:06;;;;;;;15.68;6.45;;;20.00;58.20;;;;;;5003791;28;93215;-63
2022/04/27 08:45:33;;;;;;;15.95;5.22;;;20.00;58.60;;;;;;5007670;28;92038;-63
2022/04/27 08:47:59;;;;;;;11.23;5.10;;;20.10;57.50;;;;;;5005558;28;92294;-63
2022/04/27 08:50:26;;;;;;;15.43;6.28;;;20.10;56.20;;;;;;5006793;28;94737;-63
2022/04/27 08:52:53;;;;;;;18.65;6.07;;;20.10;56.60;;;;;;5005701;28;96431;-63
2022/04/27 08:55:20;;;;;;;11.95;5.43;;;20.10;57.70;;;;;;5013253;28;92355;-63
2022/04/27 08:57:47;;;;;;;17.88;5.18;;;20.00;57.60;;;;;;5016912;28;92418;-63
2022/04/27 09:00:18;;;;;;;15.00;6.20;;;20.10;57.50;;;;;;5017066;28;92612;-63
2022/04/27 09:02:44;;;;;;;13.05;4.90;;;20.10;57.40;;;;;;5017127;28;93757;-63
2022/04/27 09:05:21;;;;;;;27.85;5.80;;;20.10;57.40;;;;;;5015486;28;92359;-63
2022/04/27 09:07:52;;;;;;;9.27;5.05;;;20.10;57.40;;;;;;5017977;28;91574;-63
2022/04/27 09:10:24;;;;;;;26.38;6.45;;;20.10;57.60;;;;;;5017767;28;92567;-63
2022/04/27 09:12:58;;;;;;;13.80;6.18;;;20.10;57.30;;;;;;5016319;28;95562;-63
2022/04/27 09:15:27;;;;;;;15.85;5.30;;;20.10;57.60;;;;;;5015071;28;92968;-63
2022/04/27 09:20:52;;;;;;;11.02;4.93;;;20.10;57.70;;;;;;5017707;28;91963;-63
2022/04/27 09:23:45;;;;;;;11.07;5.00;;;20.10;57.60;;;;;;5016694;28;93293;-63
2022/04/27 09:26:15;;;;;;;12.88;5.40;;;20.20;57.60;;;;;;5017128;28;91889;-62
2022/04/27 09:28:47;;;;;;;10.32;5.50;;;20.10;57.50;;;;;;5016890;28;91981;-63
2022/04/27 09:31:25;;;;;;;14.57;5.55;;;20.10;57.70;;;;;;5016892;28;93033;-63
2022/04/27 09:33:58;;;;;;;10.20;5.35;;;20.10;57.70;;;;;;5015493;28;94383;-63
2022/04/27 09:36:24;;;;;;;11.73;4.65;;;20.10;57.70;;;;;;5017370;28;91935;-63
2022/04/27 09:38:50;;;;;;;11.73;5.38;;;20.10;57.90;;;;;;5017000;28;92446;-63
2022/04/27 09:41:40;;;;;;;10.70;4.65;;;20.10;58.00;;;;;;5010711;28;94079;-63
2022/04/27 09:44:06;;;;;;;11.95;4.65;;;20.10;58.10;;;;;;5013880;28;93873;-63
2022/04/27 09:46:38;;;;;;;10.48;4.80;;;20.10;57.80;;;;;;5017715;28;92115;-63
2022/04/27 09:49:07;;;;;;;9.55;4.97;;;20.10;57.80;;;;;;5016226;28;92304;-63
2022/04/27 09:51:44;;;;;;;10.32;4.80;;;20.20;57.90;;;;;;5017257;28;93101;-63
2022/04/27 09:54:12;;;;;;;9.30;5.38;;;20.10;57.80;;;;;;5017394;28;92324;-63
2022/04/27 09:56:39;;;;;;;13.60;5.35;;;20.20;57.90;;;;;;5016963;28;92239;-64
2022/04/27 09:59:08;;;;;;;11.80;5.03;;;20.20;58.20;;;;;;5017086;28;91664;-63
2022/04/27 10:01:37;;;;;;;;;;;20.20;58.30;;;;;;5017167;28;92989;-63
2022/04/27 10:04:04;;;;;;;12.13;4.93;;;20.20;58.40;;;;;;5018235;28;92628;-63
2022/04/27 10:06:34;;;;;;;14.82;5.13;;;20.20;58.50;;;;;;5016695;28;93076;-63
2022/04/27 10:09:02;;;;;;;9.65;4.80;;;20.20;58.60;;;;;;5017058;28;91991;-63
2022/04/27 10:11:28;;;;;;;8.88;4.82;;;20.20;58.60;;;;;;5014519;28;93546;-63
2022/04/27 10:13:54;;;;;;;9.75;4.63;;;20.20;58.40;;;;;;5016526;28;92193;-63
2022/04/27 10:16:23;;;;;;;11.27;4.53;;;20.30;57.80;;;;;;5017113;28;92439;-64
2022/04/27 10:18:49;;;;;;;12.02;4.60;;;20.30;58.60;;;;;;5017063;28;92343;-63
2022/04/27 10:21:58;;;;;;;14.85;4.88;;;20.30;59.00;;;;;;5016814;28;92672;-63
2022/04/27 10:24:33;;;;;;;;;;;20.30;58.50;;;;;;5015641;28;93078;-62
2022/04/27 10:27:14;;;;;;;14.38;4.85;;;20.30;58.60;;;;;;5008691;28;92484;-63
2022/04/27 10:29:40;;;;;;;13.20;5.20;;;20.40;58.70;;;;;;5007621;28;92027;-63
2022/04/27 10:32:06;;;;;;;15.40;4.93;;;20.40;58.50;;;;;;5013237;28;94227;-62
2022/04/27 10:34:33;;;;;;;22.17;5.00;;;20.40;58.60;;;;;;5005943;28;94866;-64
2022/04/27 10:37:00;;;;;;;13.05;5.30;;;20.40;58.80;;;;;;5007602;28;91941;-62
2022/04/27 10:39:30;;;;;;;14.57;5.15;;;20.40;59.00;;;;;;5007384;28;92443;-62
2022/04/27 10:42:18;;;;;;;15.30;5.03;;;20.40;59.20;;;;;;5005458;28;93656;-62
2022/04/27 10:44:51;;;;;;;15.50;4.85;;;20.40;59.70;;;;;;5002055;28;93388;-62
2022/04/27 10:47:20;;;;;;;16.27;5.20;;;20.50;59.60;;;;;;5010297;28;92347;-63
2022/04/27 10:49:48;;;;;;;15.68;5.35;;;20.50;59.70;;;;;;5008206;28;91617;-63
2022/04/27 10:52:16;;;;;;;9.40;4.60;;;20.40;59.60;;;;;;5006022;28;93191;-63
2022/04/27 10:54:42;;;;;;;16.27;4.57;;;20.40;59.70;;;;;;5012613;28;93406;-63
2022/04/27 10:57:16;;;;;;;10.05;4.60;;;20.40;56.50;;;;;;5011158;28;93605;-63
2022/04/27 10:59:47;;;;;;;26.08;5.05;;;20.40;58.60;;;;;;5013605;28;91986;-63
2022/04/27 11:02:44;;;;;;;9.73;4.65;;;20.40;58.20;;;;;;5014935;28;92504;-63
2022/04/27 11:05:10;;;;;;;16.30;4.53;;;20.40;58.50;;;;;;5016159;28;93291;-63
2022/04/27 11:07:44;;;;;;;13.02;5.13;;;20.40;58.30;;;;;;5013338;28;92068;-63
2022/04/27 11:10:17;;;;;;;18.42;4.80;;;20.40;58.00;;;;;;5012747;28;91986;-63
2022/04/27 11:12:48;;;;;;;17.40;4.63;;;20.40;58.20;;;;;;5009147;28;93132;-63
2022/04/27 11:15:17;;;;;;;13.93;4.72;;;20.40;58.90;;;;;;5011885;28;93259;-63
2022/04/27 11:17:43;;;;;;;18.63;4.78;;;20.40;58.60;;;;;;5016276;28;92487;-64
2022/04/27 11:20:29;;;;;;;13.57;4.13;;;20.50;58.60;;;;;;5016351;28;91942;-64
2022/04/27 11:22:56;;;;;;;13.82;4.97;;;20.50;58.90;;;;;;5002425;28;94027;-63
2022/04/27 11:25:33;;;;;;;19.40;5.65;;;20.50;59.10;;;;;;5005817;28;93232;-64
2022/04/27 11:28:00;;;;;;;17.50;4.07;;;20.50;59.20;;;;;;5009739;28;92357;-63
2022/04/27 11:30:27;;;;;;;19.08;4.60;;;20.40;58.80;;;;;;5009528;28;91886;-63
2022/04/27 11:32:54;;;;;;;14.90;4.70;;;20.40;59.40;;;;;;5006046;28;93182;-62
2022/04/27 11:35:23;;;;;;;11.00;5.00;;;20.40;59.40;;;;;;5006832;28;92542;-63
2022/04/27 11:37:57;;;;;;;18.45;4.55;;;20.40;59.20;;;;;;5006570;28;92395;-63
2022/04/27 11:40:27;;;;;;;13.60;4.53;;;20.40;59.40;;;;;;5007000;28;91954;-64
2022/04/27 11:42:53;;;;;;;16.80;5.05;;;20.40;59.50;;;;;;5004114;28;95982;-64
2022/04/27 11:45:26;;;;;;;15.25;5.00;;;20.40;59.60;;;;;;5004369;28;92551;-64
2022/04/27 11:48:08;;;;;;;12.85;5.00;;;20.40;59.40;;;;;;5002515;28;92909;-63
2022/04/27 11:50:36;;;;;;;13.80;5.32;;;20.40;59.50;;;;;;5001708;28;92040;-63
2022/04/27 11:53:11;;;;;;;12.43;4.72;;;20.40;59.50;;;;;;5004459;28;93263;-62
2022/04/27 11:55:38;;;;;;;11.30;4.03;;;20.40;59.60;;;;;;5000209;28;93287;-62
2022/04/27 11:58:05;;;;;;;12.52;4.38;;;20.40;55.80;;;;;;5014114;28;92465;-64
2022/04/27 12:00:31;;;;;;;12.93;4.75;;;20.40;59.00;;;;;;5014663;28;92039;-64
2022/04/27 12:03:04;;;;;;;15.73;4.53;;;20.40;59.20;;;;;;5012954;28;94190;-63
2022/04/27 12:05:37;;;;;;;16.70;4.38;;;20.40;59.20;;;;;;5014692;28;91319;-63
2022/04/27 12:08:09;;;;;;;17.55;4.85;;;20.40;59.00;;;;;;5013008;28;92014;-63
2022/04/27 12:10:45;;;;;;;14.10;4.75;;;20.40;59.00;;;;;;5015327;28;92272;-63
2022/04/27 12:13:12;;;;;;;13.18;4.18;;;20.40;59.00;;;;;;5013664;28;94072;-64
2022/04/27 12:15:40;;;;;;;20.10;4.70;;;20.40;58.90;;;;;;5011985;28;93291;-64
2022/04/27 12:18:06;;;;;;;14.90;5.53;;;20.40;58.70;;;;;;5014259;28;92057;-63
2022/04/27 12:20:40;;;;;;;12.50;5.00;;;20.40;58.90;;;;;;5017792;28;92383;-63
2022/04/27 12:23:11;;;;;;;18.05;5.47;;;20.40;58.90;;;;;;5015210;28;95881;-63
2022/04/27 12:25:38;;;;;;;11.75;4.50;;;20.40;58.80;;;;;;5017417;28;92767;-64
2022/04/27 12:28:16;;;;;;;12.25;4.47;;;20.40;58.90;;;;;;5018430;28;92470;-64
2022/04/27 12:30:53;;;;;;;11.70;5.00;;;20.30;58.90;;;;;;5018780;28;91279;-63
2022/04/27 12:33:32;;;;;;;12.23;4.38;;;20.30;58.80;;;;;;5010279;28;95761;-64
2022/04/27 12:39:03;;;;;;;12.20;4.68;;;20.30;58.10;;;;;;5010300;28;93403;-64
2022/04/27 12:41:45;;;;;;;9.95;4.80;;;20.40;58.70;;;;;;5010775;28;92162;-64
2022/04/27 12:44:19;;;;;;;13.88;4.53;;;20.40;58.80;;;;;;5007622;28;93062;-64
2022/04/27 12:47:05;;;;;;;12.77;4.95;;;20.40;58.80;;;;;;5008653;28;94205;-64
2022/04/27 12:49:33;;;;;;;9.93;4.13;;;20.30;58.90;;;;;;5007576;28;92099;-63
2022/04/27 12:52:19;;;;;;;22.95;5.53;;;20.40;59.30;;;;;;5006825;28;92074;-63
2022/04/27 12:54:46;;;;;;;9.57;5.30;;;20.40;58.80;;;;;;5007815;28;92671;-63
2022/04/27 12:57:13;;;;;;;10.65;4.32;;;20.40;58.30;;;;;;5007549;28;92347;-63
2022/04/27 12:59:59;;;;;;;11.70;5.60;;;20.40;58.10;;;;;;5006943;28;91923;-63
2022/04/27 13:02:25;;;;;;;16.00;5.47;;;20.40;57.70;;;;;;5007448;28;92194;-63
2022/04/27 13:04:52;;;;;;;37.75;8.85;;;20.30;57.20;;;;;;5005754;28;94280;-63
2022/04/27 13:07:18;;;;;;;17.77;6.93;;;20.30;55.50;;;;;;5006326;28;94914;-63
2022/04/27 13:12:38;;;;;;;34.38;9.43;;;20.40;56.70;;;;;;5006551;28;92744;-63